Ogmore Vale, United Kingdom
Current Conditions -  °F | °C
As of 12:50 AM on Thursday 27 Nov 2014 (Local Time) from EGDX Reporting Station
Haze Haze  
Wind Chill: 45°   Ceiling: 1500
Heat Index: 45°   Visibility: 1.7mi
Dew Point: 45°   Wind: 3mph
Humidity: 100%   Direction: 40°NE
Pressure: 29.71"   Gusts: NA
Location:  51.6°N, 3.54°W
Report Text: EGDX 270050Z AUTO 04003KT 2800 BR FEW002/// SCT009/// BKN015/// 07/07 Q1006
Loading
Personal Weather Stations






























Interactive Weather Map New forecast layout! Learn more

10-Day Weather Forecast

Advertisements
Track Severe Weather on mobile